sensor_id;sensor_type;location;lat;lon;timestamp;temperature;humidity
8888;DHT22;4480;52.370;9.748;2023-04-03T00:00:38;1.40;99.00
8888;DHT22;4480;52.370;9.748;2023-04-03T00:03:05;1.40;99.00
8888;DHT22;4480;52.370;9.748;2023-04-03T00:05:32;1.30;99.30
8888;DHT22;4480;52.370;9.748;2023-04-03T00:07:59;1.20;99.40
8888;DHT22;4480;52.370;9.748;2023-04-03T00:10:27;1.20;99.60
8888;DHT22;4480;52.370;9.748;2023-04-03T00:12:55;1.20;99.80
8888;DHT22;4480;52.370;9.748;2023-04-03T00:15:22;1.20;99.90
8888;DHT22;4480;52.370;9.748;2023-04-03T00:17:49;1.20;99.90
8888;DHT22;4480;52.370;9.748;2023-04-03T00:20:16;1.10;99.90
8888;DHT22;4480;52.370;9.748;2023-04-03T00:22:43;1.10;99.90
8888;DHT22;4480;52.370;9.748;2023-04-03T00:25:10;1.10;99.90
8888;DHT22;4480;52.370;9.748;2023-04-03T00:27:37;1.00;99.90
8888;DHT22;4480;52.370;9.748;2023-04-03T00:30:08;0.90;99.90
8888;DHT22;4480;52.370;9.748;2023-04-03T00:32:37;0.90;99.90
8888;DHT22;4480;52.370;9.748;2023-04-03T00:37:37;0.90;99.90
8888;DHT22;4480;52.370;9.748;2023-04-03T00:40:06;0.80;99.90
8888;DHT22;4480;52.370;9.748;2023-04-03T00:42:33;0.80;99.90
8888;DHT22;4480;52.370;9.748;2023-04-03T00:45:25;0.80;99.90
8888;DHT22;4480;52.370;9.748;2023-04-03T00:47:53;0.70;99.90
8888;DHT22;4480;52.370;9.748;2023-04-03T00:50:20;0.70;99.90
8888;DHT22;4480;52.370;9.748;2023-04-03T00:52:47;0.70;99.90
8888;DHT22;4480;52.370;9.748;2023-04-03T00:55:15;0.60;99.90
8888;DHT22;4480;52.370;9.748;2023-04-03T00:57:42;0.60;99.90
8888;DHT22;4480;52.370;9.748;2023-04-03T01:00:13;0.60;99.90
8888;DHT22;4480;52.370;9.748;2023-04-03T01:02:42;0.50;99.90
8888;DHT22;4480;52.370;9.748;2023-04-03T01:05:09;0.50;99.90
8888;DHT22;4480;52.370;9.748;2023-04-03T01:07:36;0.50;99.90
8888;DHT22;4480;52.370;9.748;2023-04-03T01:10:06;0.50;99.90
8888;DHT22;4480;52.370;9.748;2023-04-03T01:12:36;0.40;99.90
8888;DHT22;4480;52.370;9.748;2023-04-03T01:15:06;0.40;99.90
8888;DHT22;4480;52.370;9.748;2023-04-03T01:17:35;0.30;99.90
8888;DHT22;4480;52.370;9.748;2023-04-03T01:20:31;0.30;99.90
8888;DHT22;4480;52.370;9.748;2023-04-03T01:23:14;0.30;99.90
8888;DHT22;4480;52.370;9.748;2023-04-03T01:25:44;0.20;99.90
8888;DHT22;4480;52.370;9.748;2023-04-03T01:28:13;0.20;99.90
8888;DHT22;4480;52.370;9.748;2023-04-03T01:30:44;0.20;99.90
8888;DHT22;4480;52.370;9.748;2023-04-03T01:33:14;0.20;99.90
8888;DHT22;4480;52.370;9.748;2023-04-03T01:35:41;0.20;99.90
8888;DHT22;4480;52.370;9.748;2023-04-03T01:38:08;0.10;99.90
8888;DHT22;4480;52.370;9.748;2023-04-03T01:40:35;0.10;99.90
8888;DHT22;4480;52.370;9.748;2023-04-03T01:43:02;0.10;99.90
8888;DHT22;4480;52.370;9.748;2023-04-03T01:45:29;0.10;99.90
8888;DHT22;4480;52.370;9.748;2023-04-03T01:47:56;0.10;99.90
8888;DHT22;4480;52.370;9.748;2023-04-03T01:50:24;0.10;99.90
8888;DHT22;4480;52.370;9.748;2023-04-03T01:52:51;0.10;99.90
8888;DHT22;4480;52.370;9.748;2023-04-03T01:55:18;0.10;99.90
8888;DHT22;4480;52.370;9.748;2023-04-03T01:57:45;0.10;99.90
8888;DHT22;4480;52.370;9.748;2023-04-03T02:00:13;0.00;99.90
8888;DHT22;4480;52.370;9.748;2023-04-03T02:02:40;0.00;99.90
8888;DHT22;4480;52.370;9.748;2023-04-03T02:05:07;0.00;99.90
8888;DHT22;4480;52.370;9.748;2023-04-03T02:07:35;0.00;99.90
8888;DHT22;4480;52.370;9.748;2023-04-03T02:10:02;0.00;99.90
8888;DHT22;4480;52.370;9.748;2023-04-03T02:12:29;0.00;99.90
8888;DHT22;4480;52.370;9.748;2023-04-03T02:14:56;-0.10;99.90
8888;DHT22;4480;52.370;9.748;2023-04-03T02:17:23;-0.10;99.90
8888;DHT22;4480;52.370;9.748;2023-04-03T02:19:49;-0.20;99.90
8888;DHT22;4480;52.370;9.748;2023-04-03T02:22:16;-0.20;99.90
8888;DHT22;4480;52.370;9.748;2023-04-03T02:24:45;-0.20;99.90
8888;DHT22;4480;52.370;9.748;2023-04-03T02:27:11;-0.30;99.90
8888;DHT22;4480;52.370;9.748;2023-04-03T02:29:38;-0.30;99.90
8888;DHT22;4480;52.370;9.748;2023-04-03T02:32:05;-0.30;99.90
8888;DHT22;4480;52.370;9.748;2023-04-03T02:34:32;-0.40;99.90
8888;DHT22;4480;52.370;9.748;2023-04-03T02:36:58;-0.40;99.90
8888;DHT22;4480;52.370;9.748;2023-04-03T02:39:25;-0.40;99.90
8888;DHT22;4480;52.370;9.748;2023-04-03T02:41:54;-0.50;99.90
8888;DHT22;4480;52.370;9.748;2023-04-03T02:44:20;-0.50;99.90
8888;DHT22;4480;52.370;9.748;2023-04-03T02:46:48;-0.50;99.90
8888;DHT22;4480;52.370;9.748;2023-04-03T02:49:15;-0.50;99.90
8888;DHT22;4480;52.370;9.748;2023-04-03T02:51:42;-0.60;99.90
8888;DHT22;4480;52.370;9.748;2023-04-03T02:54:09;-0.60;99.90
8888;DHT22;4480;52.370;9.748;2023-04-03T02:56:36;-0.60;99.90
8888;DHT22;4480;52.370;9.748;2023-04-03T02:59:04;-0.70;99.90
8888;DHT22;4480;52.370;9.748;2023-04-03T03:01:31;-0.70;99.90
8888;DHT22;4480;52.370;9.748;2023-04-03T03:03:58;-0.70;99.90
8888;DHT22;4480;52.370;9.748;2023-04-03T03:06:26;-0.80;99.90
8888;DHT22;4480;52.370;9.748;2023-04-03T03:08:52;-0.80;99.90
8888;DHT22;4480;52.370;9.748;2023-04-03T03:11:20;-0.80;99.90
8888;DHT22;4480;52.370;9.748;2023-04-03T03:13:46;-0.80;99.90
8888;DHT22;4480;52.370;9.748;2023-04-03T03:16:14;-0.90;99.90
8888;DHT22;4480;52.370;9.748;2023-04-03T03:18:41;-0.90;99.90
8888;DHT22;4480;52.370;9.748;2023-04-03T03:21:09;-0.90;99.90
8888;DHT22;4480;52.370;9.748;2023-04-03T03:23:36;-0.90;99.90
8888;DHT22;4480;52.370;9.748;2023-04-03T03:26:05;-0.90;99.90
8888;DHT22;4480;52.370;9.748;2023-04-03T03:28:33;-0.90;99.90
8888;DHT22;4480;52.370;9.748;2023-04-03T03:31:00;-1.00;99.90
8888;DHT22;4480;52.370;9.748;2023-04-03T03:33:28;-1.00;99.90
8888;DHT22;4480;52.370;9.748;2023-04-03T03:35:55;-1.00;99.90
8888;DHT22;4480;52.370;9.748;2023-04-03T03:38:22;-1.00;99.90
8888;DHT22;4480;52.370;9.748;2023-04-03T03:40:50;-1.00;99.90
8888;DHT22;4480;52.370;9.748;2023-04-03T03:43:18;-1.00;99.90
8888;DHT22;4480;52.370;9.748;2023-04-03T03:45:49;-1.10;99.90
8888;DHT22;4480;52.370;9.748;2023-04-03T03:48:16;-1.10;99.90
8888;DHT22;4480;52.370;9.748;2023-04-03T03:50:44;-1.10;99.90
8888;DHT22;4480;52.370;9.748;2023-04-03T03:53:11;-1.10;99.90
8888;DHT22;4480;52.370;9.748;2023-04-03T03:55:38;-1.10;99.90
8888;DHT22;4480;52.370;9.748;2023-04-03T03:58:05;-1.10;99.90
8888;DHT22;4480;52.370;9.748;2023-04-03T04:00:32;-1.10;99.90
8888;DHT22;4480;52.370;9.748;2023-04-03T04:02:59;-1.10;99.90
8888;DHT22;4480;52.370;9.748;2023-04-03T04:05:26;-1.10;99.90
8888;DHT22;4480;52.370;9.748;2023-04-03T04:07:54;-1.10;99.90
8888;DHT22;4480;52.370;9.748;2023-04-03T04:11:29;-1.10;99.90
8888;DHT22;4480;52.370;9.748;2023-04-03T04:13:57;-1.10;99.90
8888;DHT22;4480;52.370;9.748;2023-04-03T04:16:24;-1.10;99.90
8888;DHT22;4480;52.370;9.748;2023-04-03T04:18:51;-1.10;99.90
8888;DHT22;4480;52.370;9.748;2023-04-03T04:21:18;-1.10;99.90
8888;DHT22;4480;52.370;9.748;2023-04-03T04:23:44;-1.10;99.90
8888;DHT22;4480;52.370;9.748;2023-04-03T04:26:11;-1.10;99.90
8888;DHT22;4480;52.370;9.748;2023-04-03T04:28:39;-1.20;99.90
8888;DHT22;4480;52.370;9.748;2023-04-03T04:31:06;-1.20;99.90
8888;DHT22;4480;52.370;9.748;2023-04-03T04:33:33;-1.20;99.90
8888;DHT22;4480;52.370;9.748;2023-04-03T04:36:00;-1.20;99.90
8888;DHT22;4480;52.370;9.748;2023-04-03T04:38:26;-1.20;99.90
8888;DHT22;4480;52.370;9.748;2023-04-03T04:40:53;-1.20;99.90
8888;DHT22;4480;52.370;9.748;2023-04-03T04:43:20;-1.20;99.90
8888;DHT22;4480;52.370;9.748;2023-04-03T04:45:48;-1.20;99.90
8888;DHT22;4480;52.370;9.748;2023-04-03T04:48:15;-1.20;99.90
8888;DHT22;4480;52.370;9.748;2023-04-03T04:50:42;-1.20;99.90
8888;DHT22;4480;52.370;9.748;2023-04-03T04:53:08;-1.20;99.90
8888;DHT22;4480;52.370;9.748;2023-04-03T04:55:35;-1.20;99.90
8888;DHT22;4480;52.370;9.748;2023-04-03T04:58:02;-1.20;99.90
8888;DHT22;4480;52.370;9.748;2023-04-03T05:00:29;-1.20;99.90
8888;DHT22;4480;52.370;9.748;2023-04-03T05:02:57;-1.20;99.90
8888;DHT22;4480;52.370;9.748;2023-04-03T05:05:24;-1.10;99.90
8888;DHT22;4480;52.370;9.748;2023-04-03T05:07:50;-1.10;99.90
8888;DHT22;4480;52.370;9.748;2023-04-03T05:10:17;-1.10;99.90
8888;DHT22;4480;52.370;9.748;2023-04-03T05:12:44;-1.10;99.90
8888;DHT22;4480;52.370;9.748;2023-04-03T05:15:11;-1.00;99.90
8888;DHT22;4480;52.370;9.748;2023-04-03T05:17:38;-1.00;99.90
8888;DHT22;4480;52.370;9.748;2023-04-03T05:20:07;-1.00;99.90
8888;DHT22;4480;52.370;9.748;2023-04-03T05:22:34;-0.90;99.90
8888;DHT22;4480;52.370;9.748;2023-04-03T05:25:01;-0.80;99.90
8888;DHT22;4480;52.370;9.748;2023-04-03T05:27:28;-0.70;99.90
8888;DHT22;4480;52.370;9.748;2023-04-03T05:29:55;-0.70;99.90
8888;DHT22;4480;52.370;9.748;2023-04-03T05:32:22;-0.70;99.90
8888;DHT22;4480;52.370;9.748;2023-04-03T05:34:49;-0.60;99.90
8888;DHT22;4480;52.370;9.748;2023-04-03T05:37:17;-0.60;99.90
8888;DHT22;4480;52.370;9.748;2023-04-03T05:39:44;-0.60;99.90
8888;DHT22;4480;52.370;9.748;2023-04-03T05:42:11;-0.50;99.90
8888;DHT22;4480;52.370;9.748;2023-04-03T05:44:39;-0.50;99.90
8888;DHT22;4480;52.370;9.748;2023-04-03T05:47:06;-0.50;99.90
8888;DHT22;4480;52.370;9.748;2023-04-03T05:49:33;-0.50;99.90
8888;DHT22;4480;52.370;9.748;2023-04-03T05:52:00;-0.40;99.90
8888;DHT22;4480;52.370;9.748;2023-04-03T05:54:29;-0.40;99.90
8888;DHT22;4480;52.370;9.748;2023-04-03T05:56:56;-0.30;99.90
8888;DHT22;4480;52.370;9.748;2023-04-03T05:59:23;-0.30;99.90
8888;DHT22;4480;52.370;9.748;2023-04-03T06:01:50;-0.20;99.90
8888;DHT22;4480;52.370;9.748;2023-04-03T06:04:16;-0.20;99.90
8888;DHT22;4480;52.370;9.748;2023-04-03T06:06:48;-0.10;99.90
8888;DHT22;4480;52.370;9.748;2023-04-03T06:09:17;-0.10;99.90
8888;DHT22;4480;52.370;9.748;2023-04-03T06:11:45;-0.10;99.90
8888;DHT22;4480;52.370;9.748;2023-04-03T06:14:12;0.00;99.90
8888;DHT22;4480;52.370;9.748;2023-04-03T06:16:39;0.10;99.90
8888;DHT22;4480;52.370;9.748;2023-04-03T06:19:07;0.20;99.90
8888;DHT22;4480;52.370;9.748;2023-04-03T06:21:35;0.20;99.90
8888;DHT22;4480;52.370;9.748;2023-04-03T06:24:02;0.30;99.90
8888;DHT22;4480;52.370;9.748;2023-04-03T06:26:29;0.40;99.90
8888;DHT22;4480;52.370;9.748;2023-04-03T06:28:57;0.40;99.90
8888;DHT22;4480;52.370;9.748;2023-04-03T06:31:24;0.50;99.90
8888;DHT22;4480;52.370;9.748;2023-04-03T06:33:51;0.60;99.90
8888;DHT22;4480;52.370;9.748;2023-04-03T06:36:18;0.60;99.90
8888;DHT22;4480;52.370;9.748;2023-04-03T06:38:46;0.70;99.90
8888;DHT22;4480;52.370;9.748;2023-04-03T06:41:13;0.80;99.90
8888;DHT22;4480;52.370;9.748;2023-04-03T06:43:41;0.90;99.90
8888;DHT22;4480;52.370;9.748;2023-04-03T06:46:13;1.00;99.90
8888;DHT22;4480;52.370;9.748;2023-04-03T06:48:41;1.00;99.90
8888;DHT22;4480;52.370;9.748;2023-04-03T06:51:14;1.10;99.90
8888;DHT22;4480;52.370;9.748;2023-04-03T06:53:41;1.20;99.90
8888;DHT22;4480;52.370;9.748;2023-04-03T06:56:08;1.30;99.90
8888;DHT22;4480;52.370;9.748;2023-04-03T06:58:35;1.40;99.90
8888;DHT22;4480;52.370;9.748;2023-04-03T07:01:03;1.50;99.90
8888;DHT22;4480;52.370;9.748;2023-04-03T07:03:31;1.60;99.90
8888;DHT22;4480;52.370;9.748;2023-04-03T07:05:58;1.70;99.90
8888;DHT22;4480;52.370;9.748;2023-04-03T07:08:25;1.80;99.90
8888;DHT22;4480;52.370;9.748;2023-04-03T07:10:51;1.90;99.90
8888;DHT22;4480;52.370;9.748;2023-04-03T07:13:18;2.00;99.90
8888;DHT22;4480;52.370;9.748;2023-04-03T07:15:45;2.20;99.90
8888;DHT22;4480;52.370;9.748;2023-04-03T07:18:12;2.30;99.90
8888;DHT22;4480;52.370;9.748;2023-04-03T07:20:40;2.40;99.90
8888;DHT22;4480;52.370;9.748;2023-04-03T07:23:07;2.50;99.90
8888;DHT22;4480;52.370;9.748;2023-04-03T07:25:34;2.50;99.90
8888;DHT22;4480;52.370;9.748;2023-04-03T07:28:01;2.60;99.90
8888;DHT22;4480;52.370;9.748;2023-04-03T07:30:27;2.70;99.90
8888;DHT22;4480;52.370;9.748;2023-04-03T07:32:54;2.80;99.90
8888;DHT22;4480;52.370;9.748;2023-04-03T07:35:21;2.90;99.90
8888;DHT22;4480;52.370;9.748;2023-04-03T07:37:49;3.10;99.90
8888;DHT22;4480;52.370;9.748;2023-04-03T07:40:16;3.20;99.90
8888;DHT22;4480;52.370;9.748;2023-04-03T07:42:43;3.30;99.90
8888;DHT22;4480;52.370;9.748;2023-04-03T07:45:10;3.40;99.40
8888;DHT22;4480;52.370;9.748;2023-04-03T07:47:37;3.50;98.80
8888;DHT22;4480;52.370;9.748;2023-04-03T07:50:05;3.70;98.30
8888;DHT22;4480;52.370;9.748;2023-04-03T07:52:32;3.80;97.60
8888;DHT22;4480;52.370;9.748;2023-04-03T07:55:00;3.80;96.10
8888;DHT22;4480;52.370;9.748;2023-04-03T07:57:27;3.80;94.90
8888;DHT22;4480;52.370;9.748;2023-04-03T07:59:54;3.80;93.60
8888;DHT22;4480;52.370;9.748;2023-04-03T08:02:21;3.80;93.10
8888;DHT22;4480;52.370;9.748;2023-04-03T08:04:48;3.90;93.00
8888;DHT22;4480;52.370;9.748;2023-04-03T08:07:15;3.90;92.20
8888;DHT22;4480;52.370;9.748;2023-04-03T08:09:41;4.00;91.40
8888;DHT22;4480;52.370;9.748;2023-04-03T08:12:11;4.00;90.20
8888;DHT22;4480;52.370;9.748;2023-04-03T08:14:37;4.10;90.00
8888;DHT22;4480;52.370;9.748;2023-04-03T08:17:04;4.20;89.10
8888;DHT22;4480;52.370;9.748;2023-04-03T08:19:34;4.30;88.20
8888;DHT22;4480;52.370;9.748;2023-04-03T08:22:01;4.40;87.70
8888;DHT22;4480;52.370;9.748;2023-04-03T08:24:29;4.50;86.60
8888;DHT22;4480;52.370;9.748;2023-04-03T08:26:56;4.60;85.20
8888;DHT22;4480;52.370;9.748;2023-04-03T08:29:24;4.60;84.00
8888;DHT22;4480;52.370;9.748;2023-04-03T08:31:51;4.60;83.10
8888;DHT22;4480;52.370;9.748;2023-04-03T08:34:19;4.60;81.90
8888;DHT22;4480;52.370;9.748;2023-04-03T08:36:47;4.70;80.70
8888;DHT22;4480;52.370;9.748;2023-04-03T08:39:14;4.70;78.80
8888;DHT22;4480;52.370;9.748;2023-04-03T08:41:41;4.60;77.50
8888;DHT22;4480;52.370;9.748;2023-04-03T08:44:17;4.60;78.10
8888;DHT22;4480;52.370;9.748;2023-04-03T08:47:00;4.70;77.50
8888;DHT22;4480;52.370;9.748;2023-04-03T08:49:31;4.80;76.60
8888;DHT22;4480;52.370;9.748;2023-04-03T08:52:00;4.90;74.70
8888;DHT22;4480;52.370;9.748;2023-04-03T08:54:32;4.90;73.70
8888;DHT22;4480;52.370;9.748;2023-04-03T08:57:02;4.90;72.80
8888;DHT22;4480;52.370;9.748;2023-04-03T08:59:34;5.00;71.50
8888;DHT22;4480;52.370;9.748;2023-04-03T09:02:11;5.10;69.30
8888;DHT22;4480;52.370;9.748;2023-04-03T09:04:40;5.20;68.40
8888;DHT22;4480;52.370;9.748;2023-04-03T09:07:12;5.30;67.50
8888;DHT22;4480;52.370;9.748;2023-04-03T09:09:41;5.40;66.80
8888;DHT22;4480;52.370;9.748;2023-04-03T09:12:17;5.50;65.40
8888;DHT22;4480;52.370;9.748;2023-04-03T09:14:53;5.50;64.50
8888;DHT22;4480;52.370;9.748;2023-04-03T09:17:34;5.40;64.30
8888;DHT22;4480;52.370;9.748;2023-04-03T09:20:17;5.40;64.20
8888;DHT22;4480;52.370;9.748;2023-04-03T09:22:46;5.60;63.60
8888;DHT22;4480;52.370;9.748;2023-04-03T09:25:18;5.60;63.00
8888;DHT22;4480;52.370;9.748;2023-04-03T09:27:47;5.70;62.00
8888;DHT22;4480;52.370;9.748;2023-04-03T09:30:15;5.70;61.30
8888;DHT22;4480;52.370;9.748;2023-04-03T09:32:44;5.70;61.00
8888;DHT22;4480;52.370;9.748;2023-04-03T09:35:21;5.80;60.70
8888;DHT22;4480;52.370;9.748;2023-04-03T09:37:50;6.00;60.00
8888;DHT22;4480;52.370;9.748;2023-04-03T09:40:36;6.20;59.90
8888;DHT22;4480;52.370;9.748;2023-04-03T09:43:20;6.50;59.60
8888;DHT22;4480;52.370;9.748;2023-04-03T09:45:48;6.60;58.30
8888;DHT22;4480;52.370;9.748;2023-04-03T09:48:18;6.70;57.00
8888;DHT22;4480;52.370;9.748;2023-04-03T09:50:57;6.60;55.70
8888;DHT22;4480;52.370;9.748;2023-04-03T09:53:34;6.60;55.00
8888;DHT22;4480;52.370;9.748;2023-04-03T09:56:04;6.70;53.50
8888;DHT22;4480;52.370;9.748;2023-04-03T09:58:35;6.90;52.10
8888;DHT22;4480;52.370;9.748;2023-04-03T10:01:04;7.10;50.00
8888;DHT22;4480;52.370;9.748;2023-04-03T10:03:34;7.30;49.20
8888;DHT22;4480;52.370;9.748;2023-04-03T10:06:03;7.60;49.00
8888;DHT22;4480;52.370;9.748;2023-04-03T10:08:31;7.90;48.30
8888;DHT22;4480;52.370;9.748;2023-04-03T10:11:11;8.10;47.40
8888;DHT22;4480;52.370;9.748;2023-04-03T10:13:50;8.20;46.00
8888;DHT22;4480;52.370;9.748;2023-04-03T10:16:19;8.20;44.90
8888;DHT22;4480;52.370;9.748;2023-04-03T10:18:59;8.20;45.50
8888;DHT22;4480;52.370;9.748;2023-04-03T10:21:34;8.40;45.10
8888;DHT22;4480;52.370;9.748;2023-04-03T10:24:08;8.70;44.80
8888;DHT22;4480;52.370;9.748;2023-04-03T10:26:41;8.90;43.90
8888;DHT22;4480;52.370;9.748;2023-04-03T10:29:18;9.00;43.30
8888;DHT22;4480;52.370;9.748;2023-04-03T10:31:53;9.00;43.00
8888;DHT22;4480;52.370;9.748;2023-04-03T10:34:29;9.10;42.70
8888;DHT22;4480;52.370;9.748;2023-04-03T10:37:04;9.20;42.90
8888;DHT22;4480;52.370;9.748;2023-04-03T10:39:35;9.20;42.90
8888;DHT22;4480;52.370;9.748;2023-04-03T10:42:10;9.20;43.00
8888;DHT22;4480;52.370;9.748;2023-04-03T10:44:49;9.10;42.90
8888;DHT22;4480;52.370;9.748;2023-04-03T10:47:21;9.00;42.40
8888;DHT22;4480;52.370;9.748;2023-04-03T10:49:56;9.00;42.60
8888;DHT22;4480;52.370;9.748;2023-04-03T10:52:30;9.00;42.40
8888;DHT22;4480;52.370;9.748;2023-04-03T10:55:14;9.20;42.50
8888;DHT22;4480;52.370;9.748;2023-04-03T10:57:47;9.30;42.10
8888;DHT22;4480;52.370;9.748;2023-04-03T11:00:18;9.20;42.30
8888;DHT22;4480;52.370;9.748;2023-04-03T11:02:51;9.10;42.50
8888;DHT22;4480;52.370;9.748;2023-04-03T11:05:28;9.20;42.70
8888;DHT22;4480;52.370;9.748;2023-04-03T11:08:01;9.30;42.50
8888;DHT22;4480;52.370;9.748;2023-04-03T11:10:36;9.30;41.90
8888;DHT22;4480;52.370;9.748;2023-04-03T11:13:11;8.90;41.60
8888;DHT22;4480;52.370;9.748;2023-04-03T11:15:39;8.60;41.90
8888;DHT22;4480;52.370;9.748;2023-04-03T11:18:09;8.50;41.90
8888;DHT22;4480;52.370;9.748;2023-04-03T11:20:43;8.30;42.00
8888;DHT22;4480;52.370;9.748;2023-04-03T11:23:19;8.30;42.20
8888;DHT22;4480;52.370;9.748;2023-04-03T11:25:51;8.40;42.20
8888;DHT22;4480;52.370;9.748;2023-04-03T11:28:19;8.60;41.70
8888;DHT22;4480;52.370;9.748;2023-04-03T11:30:48;8.60;40.70
8888;DHT22;4480;52.370;9.748;2023-04-03T11:33:34;8.50;40.80
8888;DHT22;4480;52.370;9.748;2023-04-03T11:36:07;8.50;41.00
8888;DHT22;4480;52.370;9.748;2023-04-03T11:38:37;8.60;41.20
8888;DHT22;4480;52.370;9.748;2023-04-03T11:41:07;8.40;41.40
8888;DHT22;4480;52.370;9.748;2023-04-03T11:43:41;8.30;41.80
8888;DHT22;4480;52.370;9.748;2023-04-03T11:46:09;8.20;42.30
8888;DHT22;4480;52.370;9.748;2023-04-03T11:48:49;8.20;42.70
8888;DHT22;4480;52.370;9.748;2023-04-03T11:57:44;8.10;44.20
8888;DHT22;4480;52.370;9.748;2023-04-03T12:00:47;8.00;44.60
8888;DHT22;4480;52.370;9.748;2023-04-03T12:09:28;9.30;43.90
8888;DHT22;4480;52.370;9.748;2023-04-03T12:11:56;9.50;42.60
8888;DHT22;4480;52.370;9.748;2023-04-03T12:14:25;9.40;42.00
8888;DHT22;4480;52.370;9.748;2023-04-03T12:16:55;9.00;40.90
8888;DHT22;4480;52.370;9.748;2023-04-03T12:19:35;8.80;41.00
8888;DHT22;4480;52.370;9.748;2023-04-03T12:22:14;8.50;41.20
8888;DHT22;4480;52.370;9.748;2023-04-03T12:24:42;8.40;41.40
8888;DHT22;4480;52.370;9.748;2023-04-03T12:27:27;8.30;42.10
8888;DHT22;4480;52.370;9.748;2023-04-03T12:30:14;8.20;41.60
8888;DHT22;4480;52.370;9.748;2023-04-03T12:35:37;8.10;41.70
8888;DHT22;4480;52.370;9.748;2023-04-03T12:38:47;8.10;41.80
8888;DHT22;4480;52.370;9.748;2023-04-03T12:41:23;8.00;42.10
8888;DHT22;4480;52.370;9.748;2023-04-03T12:44:07;7.80;42.20
8888;DHT22;4480;52.370;9.748;2023-04-03T12:46:38;7.60;42.60
8888;DHT22;4480;52.370;9.748;2023-04-03T12:49:20;7.40;43.20
8888;DHT22;4480;52.370;9.748;2023-04-03T12:51:51;7.60;43.60
8888;DHT22;4480;52.370;9.748;2023-04-03T12:54:21;7.70;42.80
8888;DHT22;4480;52.370;9.748;2023-04-03T12:56:49;7.90;42.50
8888;DHT22;4480;52.370;9.748;2023-04-03T12:59:20;8.00;42.00
8888;DHT22;4480;52.370;9.748;2023-04-03T13:01:55;8.20;41.80
8888;DHT22;4480;52.370;9.748;2023-04-03T13:04:22;8.40;41.50
8888;DHT22;4480;52.370;9.748;2023-04-03T13:06:50;8.70;41.40
8888;DHT22;4480;52.370;9.748;2023-04-03T13:09:21;9.10;41.20
8888;DHT22;4480;52.370;9.748;2023-04-03T13:11:49;9.40;40.60
8888;DHT22;4480;52.370;9.748;2023-04-03T13:14:19;9.70;40.20
8888;DHT22;4480;52.370;9.748;2023-04-03T13:16:55;9.60;39.50
8888;DHT22;4480;52.370;9.748;2023-04-03T13:19:23;9.40;39.50
8888;DHT22;4480;52.370;9.748;2023-04-03T13:21:56;9.20;39.30
8888;DHT22;4480;52.370;9.748;2023-04-03T13:24:26;8.90;39.00
8888;DHT22;4480;52.370;9.748;2023-04-03T13:26:53;8.70;38.90
8888;DHT22;4480;52.370;9.748;2023-04-03T13:29:25;8.70;39.10
8888;DHT22;4480;52.370;9.748;2023-04-03T13:31:54;9.00;39.20
8888;DHT22;4480;52.370;9.748;2023-04-03T13:34:23;9.50;39.10
8888;DHT22;4480;52.370;9.748;2023-04-03T13:36:57;9.70;38.60
8888;DHT22;4480;52.370;9.748;2023-04-03T13:39:26;9.90;37.90
8888;DHT22;4480;52.370;9.748;2023-04-03T13:41:54;9.70;37.80
8888;DHT22;4480;52.370;9.748;2023-04-03T13:44:31;9.50;38.30
8888;DHT22;4480;52.370;9.748;2023-04-03T13:47:14;9.30;38.70
8888;DHT22;4480;52.370;9.748;2023-04-03T13:49:42;9.20;39.10
8888;DHT22;4480;52.370;9.748;2023-04-03T13:52:22;9.10;39.50
8888;DHT22;4480;52.370;9.748;2023-04-03T13:54:54;8.90;39.80
8888;DHT22;4480;52.370;9.748;2023-04-03T13:57:21;8.70;40.10
8888;DHT22;4480;52.370;9.748;2023-04-03T13:59:48;8.50;40.50
8888;DHT22;4480;52.370;9.748;2023-04-03T14:02:19;8.30;40.90
8888;DHT22;4480;52.370;9.748;2023-04-03T14:04:53;8.20;41.10
8888;DHT22;4480;52.370;9.748;2023-04-03T14:07:22;8.20;41.40
8888;DHT22;4480;52.370;9.748;2023-04-03T14:09:49;8.40;41.40
8888;DHT22;4480;52.370;9.748;2023-04-03T14:12:18;8.50;40.80
8888;DHT22;4480;52.370;9.748;2023-04-03T14:14:46;8.50;40.00
8888;DHT22;4480;52.370;9.748;2023-04-03T14:17:17;8.60;39.40
8888;DHT22;4480;52.370;9.748;2023-04-03T14:19:44;8.60;39.30
8888;DHT22;4480;52.370;9.748;2023-04-03T14:22:15;8.80;39.40
8888;DHT22;4480;52.370;9.748;2023-04-03T14:24:42;9.00;39.10
8888;DHT22;4480;52.370;9.748;2023-04-03T14:27:15;9.20;38.70
8888;DHT22;4480;52.370;9.748;2023-04-03T14:29:42;9.30;38.40
8888;DHT22;4480;52.370;9.748;2023-04-03T14:32:11;9.30;38.30
8888;DHT22;4480;52.370;9.748;2023-04-03T14:34:41;9.30;38.30
8888;DHT22;4480;52.370;9.748;2023-04-03T14:37:11;9.40;38.20
8888;DHT22;4480;52.370;9.748;2023-04-03T14:39:39;9.30;38.20
8888;DHT22;4480;52.370;9.748;2023-04-03T14:42:09;9.40;38.60
8888;DHT22;4480;52.370;9.748;2023-04-03T14:44:36;9.40;38.70
8888;DHT22;4480;52.370;9.748;2023-04-03T14:47:03;9.20;38.60
8888;DHT22;4480;52.370;9.748;2023-04-03T14:49:30;9.20;38.80
8888;DHT22;4480;52.370;9.748;2023-04-03T14:51:58;9.20;39.00
8888;DHT22;4480;52.370;9.748;2023-04-03T14:54:25;9.30;38.90
8888;DHT22;4480;52.370;9.748;2023-04-03T14:56:53;9.30;38.90
8888;DHT22;4480;52.370;9.748;2023-04-03T14:59:21;9.10;38.60
8888;DHT22;4480;52.370;9.748;2023-04-03T15:01:48;8.90;38.70
8888;DHT22;4480;52.370;9.748;2023-04-03T15:04:16;8.70;38.90
8888;DHT22;4480;52.370;9.748;2023-04-03T15:06:44;8.80;39.30
8888;DHT22;4480;52.370;9.748;2023-04-03T15:09:19;8.80;39.10
8888;DHT22;4480;52.370;9.748;2023-04-03T15:11:47;8.90;39.20
8888;DHT22;4480;52.370;9.748;2023-04-03T15:14:14;9.00;39.10
8888;DHT22;4480;52.370;9.748;2023-04-03T15:16:41;8.80;38.90
8888;DHT22;4480;52.370;9.748;2023-04-03T15:19:08;8.60;39.00
8888;DHT22;4480;52.370;9.748;2023-04-03T15:21:35;8.40;39.40
8888;DHT22;4480;52.370;9.748;2023-04-03T15:24:02;8.30;39.70
8888;DHT22;4480;52.370;9.748;2023-04-03T15:26:30;8.30;39.80
8888;DHT22;4480;52.370;9.748;2023-04-03T15:28:58;8.30;39.80
8888;DHT22;4480;52.370;9.748;2023-04-03T15:31:25;8.50;39.90
8888;DHT22;4480;52.370;9.748;2023-04-03T15:33:51;8.60;39.80
8888;DHT22;4480;52.370;9.748;2023-04-03T15:36:18;8.70;39.60
8888;DHT22;4480;52.370;9.748;2023-04-03T15:38:45;8.80;39.60
8888;DHT22;4480;52.370;9.748;2023-04-03T15:41:12;8.90;39.40
8888;DHT22;4480;52.370;9.748;2023-04-03T15:43:40;8.80;39.30
8888;DHT22;4480;52.370;9.748;2023-04-03T15:46:07;8.80;39.50
8888;DHT22;4480;52.370;9.748;2023-04-03T15:48:35;8.80;39.70
8888;DHT22;4480;52.370;9.748;2023-04-03T15:51:02;8.60;39.60
8888;DHT22;4480;52.370;9.748;2023-04-03T15:53:29;8.40;39.80
8888;DHT22;4480;52.370;9.748;2023-04-03T15:55:56;8.20;40.10
8888;DHT22;4480;52.370;9.748;2023-04-03T15:58:23;8.00;40.50
8888;DHT22;4480;52.370;9.748;2023-04-03T16:00:52;7.80;40.80
8888;DHT22;4480;52.370;9.748;2023-04-03T16:03:20;7.60;41.20
8888;DHT22;4480;52.370;9.748;2023-04-03T16:05:48;7.40;41.30
8888;DHT22;4480;52.370;9.748;2023-04-03T16:08:15;7.40;41.70
8888;DHT22;4480;52.370;9.748;2023-04-03T16:10:43;7.30;41.90
8888;DHT22;4480;52.370;9.748;2023-04-03T16:13:11;7.40;42.10
8888;DHT22;4480;52.370;9.748;2023-04-03T16:15:38;7.50;42.10
8888;DHT22;4480;52.370;9.748;2023-04-03T16:18:07;7.70;42.10
8888;DHT22;4480;52.370;9.748;2023-04-03T16:20:34;7.90;41.80
8888;DHT22;4480;52.370;9.748;2023-04-03T16:23:01;8.00;41.50
8888;DHT22;4480;52.370;9.748;2023-04-03T16:25:29;8.10;41.40
8888;DHT22;4480;52.370;9.748;2023-04-03T16:27:56;8.30;41.40
8888;DHT22;4480;52.370;9.748;2023-04-03T16:30:23;8.30;41.20
8888;DHT22;4480;52.370;9.748;2023-04-03T16:32:50;8.20;41.20
8888;DHT22;4480;52.370;9.748;2023-04-03T16:35:18;8.20;41.30
8888;DHT22;4480;52.370;9.748;2023-04-03T16:37:45;8.10;41.30
8888;DHT22;4480;52.370;9.748;2023-04-03T16:40:12;8.00;41.30
8888;DHT22;4480;52.370;9.748;2023-04-03T16:42:39;8.00;41.80
8888;DHT22;4480;52.370;9.748;2023-04-03T16:45:07;7.90;41.10
8888;DHT22;4480;52.370;9.748;2023-04-03T16:47:34;7.70;40.80